Time;durP1;ratioP1;P1;durP2;ratioP2;P2;SDS_P1;SDS_P2;PMS_P1;PMS_P2;Temp;Humidity;BMP_temperature;BMP_pressure;BME280_temperature;BME280_humidity;BME280_pressure;Samples;Min_cycle;Max_cycle;Signal;HPM_P1;HPM_P2
2021/07/15 00:00:50;;;;;;;14.46;9.96;;;;;;;;;;362491;146;857982;-60
2021/07/15 00:01:52;;;;;;;15.29;9.55;;;;;;;;;;365534;147;865088;-60
2021/07/15 00:02:54;;;;;;;14.44;10.09;;;;;;;;;;365661;145;865092;-60
2021/07/15 00:03:55;;;;;;;18.36;9.89;;;;;;;;;;366688;147;857465;-59
2021/07/15 00:04:57;;;;;;;10.46;9.11;;;;;;;;;;358809;150;859229;-60
2021/07/15 00:05:58;;;;;;;13.09;9.75;;;;;;;;;;357609;149;859084;-60
2021/07/15 00:07:00;;;;;;;11.74;9.24;;;;;;;;;;365140;145;858247;-60
2021/07/15 00:08:02;;;;;;;12.55;9.53;;;;;;;;;;355879;150;865657;-59
2021/07/15 00:09:03;;;;;;;13.55;9.34;;;;;;;;;;351804;152;857506;-59
2021/07/15 00:10:07;;;;;;;18.13;10.00;;;;;;;;;;365228;146;864981;-59
2021/07/15 00:11:10;;;;;;;15.59;9.81;;;;;;;;;;364902;144;857415;-59
2021/07/15 00:12:12;;;;;;;12.45;9.67;;;;;;;;;;364802;146;860894;-59
2021/07/15 00:13:14;;;;;;;13.03;10.09;;;;;;;;;;365027;145;857553;-59
2021/07/15 00:14:17;;;;;;;12.04;9.92;;;;;;;;;;365890;145;857497;-59
2021/07/15 00:15:20;;;;;;;15.66;9.96;;;;;;;;;;366273;147;858455;-59
2021/07/15 00:16:23;;;;;;;15.94;10.66;;;;;;;;;;365376;144;857303;-60
2021/07/15 00:17:24;;;;;;;14.99;10.31;;;;;;;;;;366442;144;865070;-59
2021/07/15 00:18:27;;;;;;;15.59;10.09;;;;;;;;;;364521;147;858018;-59
2021/07/15 00:19:29;;;;;;;11.72;9.92;;;;;;;;;;362850;145;859241;-59
2021/07/15 00:20:33;;;;;;;14.13;10.32;;;;;;;;;;365297;145;864956;-59
2021/07/15 00:21:35;;;;;;;15.30;10.22;;;;;;;;;;363371;146;857471;-59
2021/07/15 00:22:37;;;;;;;14.94;10.22;;;;;;;;;;356469;149;857443;-59
2021/07/15 00:23:38;;;;;;;18.91;10.64;;;;;;;;;;359085;149;857546;-59
2021/07/15 00:24:40;;;;;;;13.86;9.96;;;;;;;;;;356093;149;859461;-59
2021/07/15 00:25:42;;;;;;;11.98;9.61;;;;;;;;;;358100;149;866207;-59
2021/07/15 00:26:45;;;;;;;14.28;10.16;;;;;;;;;;355502;151;857380;-59
2021/07/15 00:27:47;;;;;;;12.21;9.75;;;;;;;;;;357500;149;858754;-60
2021/07/15 00:28:48;;;;;;;18.27;10.06;;;;;;;;;;358015;149;857728;-59
2021/07/15 00:29:50;;;;;;;15.96;10.19;;;;;;;;;;359593;149;866920;-59
2021/07/15 00:30:52;;;;;;;12.66;9.97;;;;;;;;;;358538;149;866878;-59
2021/07/15 00:31:53;;;;;;;13.85;9.73;;;;;;;;;;358907;149;866863;-59
2021/07/15 00:32:55;;;;;;;12.59;9.46;;;;;;;;;;359585;149;857481;-59
2021/07/15 00:33:56;;;;;;;12.96;9.29;;;;;;;;;;359675;149;859219;-59
2021/07/15 00:34:58;;;;;;;15.64;9.84;;;;;;;;;;358158;148;859677;-59
2021/07/15 00:35:59;;;;;;;12.34;9.96;;;;;;;;;;357257;148;858536;-59
2021/07/15 00:37:01;;;;;;;11.72;9.73;;;;;;;;;;359688;149;858877;-59
2021/07/15 00:38:03;;;;;;;11.39;9.66;;;;;;;;;;356873;149;860033;-59
2021/07/15 00:39:05;;;;;;;18.16;10.43;;;;;;;;;;356131;149;864940;-59
2021/07/15 00:40:08;;;;;;;12.41;9.75;;;;;;;;;;358847;149;857390;-60
2021/07/15 00:41:09;;;;;;;18.28;9.85;;;;;;;;;;353438;149;857587;-60
2021/07/15 00:42:11;;;;;;;13.52;9.96;;;;;;;;;;357172;149;857377;-59
2021/07/15 00:43:13;;;;;;;13.19;10.24;;;;;;;;;;357391;148;857519;-59
2021/07/15 00:44:14;;;;;;;15.24;9.59;;;;;;;;;;354770;149;857464;-59
2021/07/15 00:45:18;;;;;;;13.56;10.35;;;;;;;;;;354947;149;857926;-59
2021/07/15 00:46:20;;;;;;;20.34;10.01;;;;;;;;;;358731;149;857544;-59
2021/07/15 00:47:21;;;;;;;13.84;9.30;;;;;;;;;;358546;149;859048;-60
2021/07/15 00:48:23;;;;;;;15.84;10.04;;;;;;;;;;358455;149;857422;-59
2021/07/15 00:49:25;;;;;;;19.65;10.69;;;;;;;;;;355854;149;857420;-59
2021/07/15 00:50:27;;;;;;;15.95;10.04;;;;;;;;;;358375;149;858311;-59
2021/07/15 00:51:30;;;;;;;12.12;10.46;;;;;;;;;;356319;149;858981;-60
2021/07/15 00:52:31;;;;;;;12.32;9.60;;;;;;;;;;353443;149;857442;-59
2021/07/15 00:53:33;;;;;;;12.11;9.90;;;;;;;;;;358080;149;866430;-59
2021/07/15 00:54:35;;;;;;;14.67;10.39;;;;;;;;;;357876;149;858386;-59
2021/07/15 00:55:38;;;;;;;11.66;10.13;;;;;;;;;;355724;149;858959;-59
2021/07/15 00:56:42;;;;;;;16.04;10.30;;;;;;;;;;357262;149;857892;-59
2021/07/15 00:57:43;;;;;;;15.74;10.21;;;;;;;;;;356316;149;859397;-59
2021/07/15 00:58:45;;;;;;;15.36;9.88;;;;;;;;;;356244;149;857423;-58
2021/07/15 00:59:47;;;;;;;12.84;10.41;;;;;;;;;;353644;150;857420;-59
2021/07/15 01:00:49;;;;;;;12.39;9.99;;;;;;;;;;358597;149;859372;-59
2021/07/15 01:01:50;;;;;;;14.34;10.23;;;;;;;;;;359145;149;859248;-59
2021/07/15 01:02:53;;;;;;;13.21;10.57;;;;;;;;;;358555;149;865195;-59
2021/07/15 01:03:55;;;;;;;12.97;10.35;;;;;;;;;;357496;148;860115;-59
2021/07/15 01:04:57;;;;;;;15.13;10.21;;;;;;;;;;358273;148;859225;-58
2021/07/15 01:05:58;;;;;;;14.24;9.88;;;;;;;;;;359710;149;857428;-58
2021/07/15 01:07:00;;;;;;;16.35;10.85;;;;;;;;;;359704;149;857442;-59
2021/07/15 01:08:02;;;;;;;13.25;10.61;;;;;;;;;;358940;148;859270;-58
2021/07/15 01:09:04;;;;;;;16.10;9.93;;;;;;;;;;354492;149;858228;-59
2021/07/15 01:10:07;;;;;;;15.13;11.14;;;;;;;;;;353128;152;857337;-60
2021/07/15 01:11:16;;;;;;;17.81;10.14;;;;;;;;;;357234;149;857799;-59
2021/07/15 01:12:23;;;;;;;15.71;9.78;;;;;;;;;;358503;149;857895;-59
2021/07/15 01:13:43;;;;;;;12.75;10.19;;;;;;;;;;354408;149;858700;-59
2021/07/15 01:14:44;;;;;;;;;;;;;;;;;;362235;148;856637;-59
2021/07/15 01:15:51;;;;;;;14.25;10.20;;;;;;;;;;356642;149;857503;-59
2021/07/15 01:16:57;;;;;;;13.48;10.11;;;;;;;;;;353056;152;857455;-58
2021/07/15 01:18:07;;;;;;;15.14;10.37;;;;;;;;;;356822;149;860217;-59
2021/07/15 01:19:27;;;;;;;12.82;9.81;;;;;;;;;;358022;149;859625;-59
2021/07/15 01:20:38;;;;;;;13.17;9.86;;;;;;;;;;359393;149;857834;-59
2021/07/15 01:21:58;;;;;;;13.93;10.10;;;;;;;;;;357832;146;857418;-60
2021/07/15 01:22:59;;;;;;;;;;;;;;;;;;363659;146;858457;-59
2021/07/15 01:24:15;;;;;;;11.10;9.71;;;;;;;;;;361839;146;857475;-60
2021/07/15 01:25:25;;;;;;;12.56;9.52;;;;;;;;;;358877;147;857690;-60
2021/07/15 01:26:29;;;;;;;13.61;10.49;;;;;;;;;;358188;149;859198;-60
2021/07/15 01:27:36;;;;;;;19.73;10.46;;;;;;;;;;358946;149;857277;-59
2021/07/15 01:28:56;;;;;;;14.37;9.94;;;;;;;;;;355556;147;860154;-60
2021/07/15 01:30:03;;;;;;;14.53;10.46;;;;;;;;;;359430;147;857531;-60
2021/07/15 01:31:04;;;;;;;16.66;10.67;;;;;;;;;;360307;149;859003;-60
2021/07/15 01:32:06;;;;;;;15.55;10.26;;;;;;;;;;350633;152;858207;-60
2021/07/15 01:33:15;;;;;;;13.99;10.56;;;;;;;;;;352281;149;857340;-60
2021/07/15 01:34:13;;;;;;;13.74;9.72;;;;;;;;;;358926;149;857344;-60
2021/07/15 01:35:15;;;;;;;13.97;9.83;;;;;;;;;;360373;149;859138;-60
2021/07/15 01:36:19;;;;;;;14.46;10.24;;;;;;;;;;358976;149;865727;-60
2021/07/15 01:37:21;;;;;;;17.61;9.93;;;;;;;;;;352241;150;857330;-61
2021/07/15 01:38:24;;;;;;;13.37;9.91;;;;;;;;;;358657;146;860071;-60
2021/07/15 01:39:27;;;;;;;12.69;9.72;;;;;;;;;;366423;146;857342;-60
2021/07/15 01:40:31;;;;;;;16.24;10.52;;;;;;;;;;360979;147;858949;-59
2021/07/15 01:41:33;;;;;;;13.80;10.08;;;;;;;;;;360140;149;857737;-59
2021/07/15 01:42:35;;;;;;;18.21;10.07;;;;;;;;;;355798;146;858115;-59
2021/07/15 01:43:44;;;;;;;13.93;9.49;;;;;;;;;;357542;147;857783;-60
2021/07/15 01:44:46;;;;;;;13.08;10.81;;;;;;;;;;358787;147;859152;-60
2021/07/15 01:45:47;;;;;;;16.88;10.78;;;;;;;;;;358317;149;858159;-60
2021/07/15 01:46:49;;;;;;;16.18;10.77;;;;;;;;;;359086;147;857444;-60
2021/07/15 01:47:51;;;;;;;15.31;10.62;;;;;;;;;;358957;147;866878;-60
2021/07/15 01:48:53;;;;;;;17.63;10.13;;;;;;;;;;360464;149;857424;-60
2021/07/15 01:49:55;;;;;;;12.98;9.42;;;;;;;;;;360521;149;857462;-60
2021/07/15 01:50:57;;;;;;;15.07;10.54;;;;;;;;;;359737;147;859238;-60
2021/07/15 01:51:59;;;;;;;13.07;10.41;;;;;;;;;;359927;149;857736;-60
2021/07/15 01:53:01;;;;;;;13.76;10.02;;;;;;;;;;360375;149;857936;-60
2021/07/15 01:54:03;;;;;;;11.99;10.24;;;;;;;;;;356726;149;865037;-60
2021/07/15 01:55:05;;;;;;;15.36;10.19;;;;;;;;;;358606;147;864993;-60
2021/07/15 01:56:10;;;;;;;13.08;9.82;;;;;;;;;;358221;149;857477;-61
2021/07/15 01:57:12;;;;;;;12.49;9.89;;;;;;;;;;356081;149;858245;-60
2021/07/15 01:58:13;;;;;;;13.29;9.79;;;;;;;;;;358328;147;865635;-60
2021/07/15 01:59:16;;;;;;;14.27;9.74;;;;;;;;;;361001;147;859263;-60
2021/07/15 02:00:18;;;;;;;12.25;9.91;;;;;;;;;;360460;149;857479;-59
2021/07/15 02:01:20;;;;;;;14.52;9.71;;;;;;;;;;359693;147;857369;-60
2021/07/15 02:02:21;;;;;;;12.36;9.66;;;;;;;;;;361057;147;857228;-60
2021/07/15 02:03:23;;;;;;;16.33;9.63;;;;;;;;;;354622;146;859193;-59
2021/07/15 02:04:25;;;;;;;14.30;10.01;;;;;;;;;;354560;149;859040;-59
2021/07/15 02:05:26;;;;;;;15.59;10.16;;;;;;;;;;350486;150;859208;-60
2021/07/15 02:06:30;;;;;;;12.06;10.64;;;;;;;;;;352993;149;859701;-60
2021/07/15 02:07:32;;;;;;;15.74;10.16;;;;;;;;;;360191;149;865078;-59
2021/07/15 02:08:33;;;;;;;17.81;10.52;;;;;;;;;;359951;149;866281;-59
2021/07/15 02:09:35;;;;;;;12.02;10.30;;;;;;;;;;360432;147;857437;-59
2021/07/15 02:10:38;;;;;;;15.10;11.00;;;;;;;;;;359642;149;857400;-59
2021/07/15 02:11:39;;;;;;;15.88;10.26;;;;;;;;;;359815;149;859162;-59
2021/07/15 02:12:41;;;;;;;17.51;10.60;;;;;;;;;;360527;147;857346;-59
2021/07/15 02:13:42;;;;;;;19.92;10.65;;;;;;;;;;357875;149;864660;-59
2021/07/15 02:14:44;;;;;;;18.46;10.81;;;;;;;;;;360139;149;857523;-60
2021/07/15 02:15:46;;;;;;;24.25;11.72;;;;;;;;;;359726;147;857385;-59
2021/07/15 02:16:48;;;;;;;23.66;11.89;;;;;;;;;;358521;149;857384;-59
2021/07/15 02:17:50;;;;;;;18.38;10.95;;;;;;;;;;360318;149;859182;-59
2021/07/15 02:18:51;;;;;;;14.86;10.50;;;;;;;;;;358603;149;859549;-59
2021/07/15 02:19:53;;;;;;;13.94;10.71;;;;;;;;;;356014;149;859344;-59
2021/07/15 02:20:55;;;;;;;17.89;10.71;;;;;;;;;;358824;147;857574;-59
2021/07/15 02:21:57;;;;;;;20.68;11.12;;;;;;;;;;355994;149;857535;-59
2021/07/15 02:22:58;;;;;;;14.86;10.48;;;;;;;;;;359164;147;857234;-59
2021/07/15 02:24:00;;;;;;;17.86;11.39;;;;;;;;;;362319;147;859067;-59
2021/07/15 02:25:03;;;;;;;16.75;10.85;;;;;;;;;;361705;147;866089;-59
2021/07/15 02:26:05;;;;;;;17.72;10.78;;;;;;;;;;363426;148;860012;-59
2021/07/15 02:27:07;;;;;;;16.54;10.73;;;;;;;;;;362899;147;859427;-60
2021/07/15 02:28:09;;;;;;;17.26;10.88;;;;;;;;;;359464;145;857390;-60
2021/07/15 02:29:11;;;;;;;20.38;11.16;;;;;;;;;;360220;148;857367;-59
2021/07/15 02:30:14;;;;;;;18.94;11.42;;;;;;;;;;357912;147;857321;-59
2021/07/15 02:31:16;;;;;;;17.41;11.26;;;;;;;;;;362939;148;857445;-60
2021/07/15 02:32:17;;;;;;;19.05;10.69;;;;;;;;;;362055;145;866046;-59
2021/07/15 02:33:19;;;;;;;19.32;10.44;;;;;;;;;;363458;148;857884;-59
2021/07/15 02:34:22;;;;;;;16.87;10.15;;;;;;;;;;362680;147;857554;-59
2021/07/15 02:35:24;;;;;;;18.01;10.64;;;;;;;;;;361775;145;857490;-59
2021/07/15 02:36:28;;;;;;;13.37;10.14;;;;;;;;;;361469;148;857407;-59
2021/07/15 02:37:30;;;;;;;15.86;10.44;;;;;;;;;;362106;147;857411;-59
2021/07/15 02:38:32;;;;;;;13.05;10.49;;;;;;;;;;353837;150;857319;-59
2021/07/15 02:39:34;;;;;;;14.67;11.09;;;;;;;;;;354150;148;859104;-59
2021/07/15 02:40:36;;;;;;;15.47;10.51;;;;;;;;;;361454;148;860353;-60
2021/07/15 02:41:37;;;;;;;15.89;10.02;;;;;;;;;;363285;147;858896;-59
2021/07/15 02:42:39;;;;;;;17.82;10.76;;;;;;;;;;361183;145;857419;-59
2021/07/15 02:43:41;;;;;;;13.51;10.70;;;;;;;;;;363273;148;857262;-58
2021/07/15 02:44:43;;;;;;;13.61;10.14;;;;;;;;;;361907;147;865164;-59
2021/07/15 02:45:44;;;;;;;15.18;10.03;;;;;;;;;;363046;147;858100;-58
2021/07/15 02:46:46;;;;;;;12.46;10.11;;;;;;;;;;362443;145;859063;-59
2021/07/15 02:47:48;;;;;;;13.04;9.97;;;;;;;;;;363397;148;857531;-59
2021/07/15 02:48:50;;;;;;;14.40;10.69;;;;;;;;;;361356;147;858482;-59
2021/07/15 02:49:51;;;;;;;15.24;10.09;;;;;;;;;;361103;145;859194;-58
2021/07/15 02:50:53;;;;;;;16.30;10.17;;;;;;;;;;358264;148;859552;-58
2021/07/15 02:51:54;;;;;;;18.00;10.40;;;;;;;;;;359665;147;867360;-58
2021/07/15 02:52:56;;;;;;;18.68;10.16;;;;;;;;;;363125;148;858166;-59
2021/07/15 02:53:59;;;;;;;13.72;10.47;;;;;;;;;;363847;145;857916;-59
2021/07/15 02:55:01;;;;;;;15.81;11.01;;;;;;;;;;363019;148;858507;-59
2021/07/15 02:56:04;;;;;;;15.95;10.52;;;;;;;;;;360682;147;859383;-59
2021/07/15 02:57:11;;;;;;;18.67;10.26;;;;;;;;;;360263;145;857820;-58
2021/07/15 02:58:14;;;;;;;24.46;11.00;;;;;;;;;;357625;148;858442;-58
2021/07/15 02:59:18;;;;;;;16.87;11.03;;;;;;;;;;361465;146;857373;-59
2021/07/15 03:00:20;;;;;;;15.39;10.25;;;;;;;;;;362518;147;857654;-58
2021/07/15 03:01:21;;;;;;;15.12;10.89;;;;;;;;;;362372;148;857366;-58
2021/07/15 03:02:25;;;;;;;14.99;10.16;;;;;;;;;;362323;147;865937;-58
2021/07/15 03:03:43;;;;;;;16.51;9.73;;;;;;;;;;361958;147;859243;-59
2021/07/15 03:04:49;;;;;;;16.06;9.28;;;;;;;;;;355278;151;858227;-58
2021/07/15 03:06:07;;;;;;;13.61;8.87;;;;;;;;;;355714;151;857691;-58
2021/07/15 03:07:09;;;;;;;14.71;9.62;;;;;;;;;;354115;150;857302;-58
2021/07/15 03:08:12;;;;;;;10.95;8.77;;;;;;;;;;345260;151;860020;-59
2021/07/15 03:09:14;;;;;;;11.57;8.95;;;;;;;;;;351132;151;865497;-58
2021/07/15 03:10:17;;;;;;;11.19;9.32;;;;;;;;;;349862;151;857437;-58
2021/07/15 03:11:19;;;;;;;11.38;9.04;;;;;;;;;;347257;151;860187;-58
2021/07/15 03:12:21;;;;;;;12.79;9.46;;;;;;;;;;347026;151;864985;-58
2021/07/15 03:13:23;;;;;;;13.12;8.64;;;;;;;;;;348826;152;857338;-58
2021/07/15 03:14:25;;;;;;;12.54;8.77;;;;;;;;;;348832;151;857405;-59
2021/07/15 03:15:26;;;;;;;10.52;9.04;;;;;;;;;;356328;149;857386;-59
2021/07/15 03:16:28;;;;;;;16.35;8.41;;;;;;;;;;356351;149;857375;-60
2021/07/15 03:17:34;;;;;;;14.02;9.25;;;;;;;;;;354054;149;857458;-59
2021/07/15 03:18:36;;;;;;;10.78;8.99;;;;;;;;;;354690;148;858585;-59
2021/07/15 03:19:38;;;;;;;13.19;9.56;;;;;;;;;;355770;151;858388;-59
2021/07/15 03:20:40;;;;;;;13.49;9.16;;;;;;;;;;357394;148;857506;-57
2021/07/15 03:21:42;;;;;;;14.05;9.66;;;;;;;;;;351839;150;857337;-58
2021/07/15 03:22:44;;;;;;;14.89;9.79;;;;;;;;;;350843;151;857444;-59
2021/07/15 03:23:46;;;;;;;19.45;10.27;;;;;;;;;;352570;151;857387;-57
2021/07/15 03:24:49;;;;;;;13.51;9.98;;;;;;;;;;346736;153;857411;-59
2021/07/15 03:25:52;;;;;;;13.48;9.97;;;;;;;;;;351405;152;858846;-59
2021/07/15 03:26:53;;;;;;;11.52;9.93;;;;;;;;;;353213;152;857958;-59
2021/07/15 03:27:55;;;;;;;17.51;10.26;;;;;;;;;;350674;151;859292;-58
2021/07/15 03:28:57;;;;;;;15.37;10.17;;;;;;;;;;352541;151;857806;-59
2021/07/15 03:29:59;;;;;;;14.74;11.09;;;;;;;;;;353353;152;859925;-59
2021/07/15 03:31:03;;;;;;;13.93;9.95;;;;;;;;;;353212;152;858436;-58
2021/07/15 03:32:05;;;;;;;15.16;9.60;;;;;;;;;;352415;152;859869;-59
2021/07/15 03:33:07;;;;;;;13.96;10.37;;;;;;;;;;353604;149;864946;-59
2021/07/15 03:34:08;;;;;;;13.06;9.59;;;;;;;;;;352760;150;857323;-58
2021/07/15 03:35:10;;;;;;;13.98;10.54;;;;;;;;;;354494;150;857910;-58
2021/07/15 03:36:12;;;;;;;17.22;10.86;;;;;;;;;;352601;151;857361;-59
2021/07/15 03:37:14;;;;;;;14.07;9.46;;;;;;;;;;354225;150;857669;-59
2021/07/15 03:38:16;;;;;;;16.63;10.20;;;;;;;;;;354728;150;858950;-58
2021/07/15 03:39:17;;;;;;;12.09;9.86;;;;;;;;;;353471;150;859953;-58
2021/07/15 03:40:21;;;;;;;12.92;10.51;;;;;;;;;;352639;149;857506;-59
2021/07/15 03:41:23;;;;;;;17.81;10.91;;;;;;;;;;345772;154;858500;-59
2021/07/15 03:42:24;;;;;;;16.36;10.64;;;;;;;;;;353255;151;859511;-59
2021/07/15 03:43:26;;;;;;;16.24;10.99;;;;;;;;;;340670;156;857467;-58
2021/07/15 03:44:27;;;;;;;13.29;11.13;;;;;;;;;;353568;149;857416;-59
2021/07/15 03:45:29;;;;;;;18.31;11.49;;;;;;;;;;360435;147;857396;-58
2021/07/15 03:46:31;;;;;;;12.27;10.51;;;;;;;;;;360063;149;858331;-59
2021/07/15 03:47:32;;;;;;;19.51;11.07;;;;;;;;;;354894;149;858304;-58
2021/07/15 03:48:34;;;;;;;13.06;10.24;;;;;;;;;;355339;149;859433;-57
2021/07/15 03:49:36;;;;;;;16.15;11.16;;;;;;;;;;360330;147;859166;-61
2021/07/15 03:50:38;;;;;;;20.73;11.15;;;;;;;;;;358001;149;864937;-59
2021/07/15 03:51:39;;;;;;;18.44;10.45;;;;;;;;;;356359;149;858115;-59
2021/07/15 03:52:41;;;;;;;12.20;10.74;;;;;;;;;;358377;149;857366;-60
2021/07/15 03:53:43;;;;;;;18.88;11.35;;;;;;;;;;359467;149;857382;-58
2021/07/15 03:54:45;;;;;;;17.39;11.31;;;;;;;;;;358778;149;857407;-59
2021/07/15 03:55:47;;;;;;;13.00;10.29;;;;;;;;;;358823;149;859164;-61
2021/07/15 03:56:50;;;;;;;15.37;10.51;;;;;;;;;;359208;147;859276;-59
2021/07/15 03:57:52;;;;;;;15.85;10.93;;;;;;;;;;358891;149;857525;-59
2021/07/15 03:58:55;;;;;;;18.12;10.87;;;;;;;;;;360524;149;865325;-60
2021/07/15 03:59:57;;;;;;;15.34;10.53;;;;;;;;;;359946;149;857609;-61
2021/07/15 04:00:59;;;;;;;13.06;10.85;;;;;;;;;;358518;147;859175;-60
2021/07/15 04:02:02;;;;;;;17.33;11.59;;;;;;;;;;358383;149;857519;-60
2021/07/15 04:03:04;;;;;;;15.03;10.64;;;;;;;;;;360353;149;857868;-60
2021/07/15 04:04:06;;;;;;;17.91;11.13;;;;;;;;;;358716;147;866062;-60
2021/07/15 04:05:08;;;;;;;17.85;11.17;;;;;;;;;;355588;149;859777;-60
2021/07/15 04:06:11;;;;;;;16.49;11.00;;;;;;;;;;353364;152;857439;-60
2021/07/15 04:07:12;;;;;;;18.17;11.37;;;;;;;;;;355794;149;859666;-59
2021/07/15 04:08:15;;;;;;;15.90;11.40;;;;;;;;;;358875;149;857526;-63
2021/07/15 04:09:17;;;;;;;12.88;11.44;;;;;;;;;;358119;147;857459;-62
2021/07/15 04:10:18;;;;;;;15.93;11.41;;;;;;;;;;360033;149;865152;-61
2021/07/15 04:11:22;;;;;;;18.04;11.16;;;;;;;;;;357235;149;857359;-67
2021/07/15 04:12:23;;;;;;;19.44;11.88;;;;;;;;;;357312;149;857465;-64
2021/07/15 04:13:27;;;;;;;16.76;11.87;;;;;;;;;;360112;149;857448;-64
2021/07/15 04:14:42;;;;;;;21.74;11.74;;;;;;;;;;359859;146;866832;-63
2021/07/15 04:15:55;;;;;;;17.89;11.52;;;;;;;;;;358091;147;859000;-60
2021/07/15 04:17:02;;;;;;;17.97;11.38;;;;;;;;;;359752;149;858428;-61
2021/07/15 04:18:04;;;;;;;15.39;11.12;;;;;;;;;;355260;149;859769;-64
2021/07/15 04:19:05;;;;;;;15.92;11.77;;;;;;;;;;360031;149;859621;-60
2021/07/15 04:20:09;;;;;;;16.50;11.45;;;;;;;;;;351934;149;857338;-59
2021/07/15 04:21:11;;;;;;;15.98;10.93;;;;;;;;;;351753;150;857410;-62
2021/07/15 04:22:13;;;;;;;17.61;11.70;;;;;;;;;;351274;150;859316;-64
2021/07/15 04:23:18;;;;;;;18.82;11.43;;;;;;;;;;347634;152;864768;-60
2021/07/15 04:24:19;;;;;;;18.20;11.83;;;;;;;;;;347696;153;857415;-60
2021/07/15 04:25:21;;;;;;;19.44;11.96;;;;;;;;;;354918;149;859224;-60
2021/07/15 04:26:23;;;;;;;18.65;12.06;;;;;;;;;;351276;151;864559;-59
2021/07/15 04:27:24;;;;;;;18.28;12.49;;;;;;;;;;353106;151;857363;-59
2021/07/15 04:28:26;;;;;;;19.05;11.26;;;;;;;;;;352308;153;857507;-59
2021/07/15 04:29:28;;;;;;;19.85;11.65;;;;;;;;;;352202;151;859046;-59
2021/07/15 04:30:31;;;;;;;17.39;11.60;;;;;;;;;;350168;151;859159;-59
2021/07/15 04:31:37;;;;;;;15.16;11.39;;;;;;;;;;351390;153;866236;-60
2021/07/15 04:32:40;;;;;;;19.21;11.68;;;;;;;;;;354589;150;857422;-59
2021/07/15 04:33:41;;;;;;;13.53;11.51;;;;;;;;;;350802;151;858713;-62
2021/07/15 04:34:43;;;;;;;14.99;11.11;;;;;;;;;;347633;153;865201;-62
2021/07/15 04:35:45;;;;;;;20.25;11.31;;;;;;;;;;355791;150;857357;-66
2021/07/15 04:36:49;;;;;;;14.41;11.68;;;;;;;;;;355556;150;857267;-67
2021/07/15 04:37:50;;;;;;;16.10;11.67;;;;;;;;;;354750;150;858683;-63
2021/07/15 04:38:52;;;;;;;17.34;11.09;;;;;;;;;;355857;151;857503;-64
2021/07/15 04:39:54;;;;;;;18.00;11.82;;;;;;;;;;356132;150;857616;-64
2021/07/15 04:40:56;;;;;;;14.25;11.61;;;;;;;;;;353529;150;865127;-62
2021/07/15 04:41:59;;;;;;;19.30;11.19;;;;;;;;;;352293;150;857556;-62
2021/07/15 04:43:07;;;;;;;16.21;11.68;;;;;;;;;;355014;151;857394;-62
2021/07/15 04:44:10;;;;;;;15.42;11.85;;;;;;;;;;353250;150;857366;-62
2021/07/15 04:45:12;;;;;;;15.76;11.32;;;;;;;;;;353169;149;857335;-63
2021/07/15 04:46:17;;;;;;;18.23;11.33;;;;;;;;;;348985;150;867194;-59
2021/07/15 04:47:19;;;;;;;14.14;11.49;;;;;;;;;;351237;151;857407;-61
2021/07/15 04:48:21;;;;;;;15.14;11.45;;;;;;;;;;353879;150;857992;-69
2021/07/15 04:49:22;;;;;;;13.16;10.71;;;;;;;;;;350679;151;857488;-64
2021/07/15 04:50:26;;;;;;;20.24;12.48;;;;;;;;;;351300;151;857424;-67
2021/07/15 04:51:28;;;;;;;16.95;11.30;;;;;;;;;;354357;150;859386;-66
2021/07/15 04:52:30;;;;;;;17.77;10.69;;;;;;;;;;352631;150;857372;-66
2021/07/15 04:53:31;;;;;;;17.39;10.54;;;;;;;;;;353848;150;859127;-68
2021/07/15 04:54:33;;;;;;;14.31;10.92;;;;;;;;;;356707;149;859169;-63
2021/07/15 04:55:35;;;;;;;16.07;11.21;;;;;;;;;;355016;150;859530;-63
2021/07/15 04:56:37;;;;;;;15.86;11.53;;;;;;;;;;353694;149;859184;-62
2021/07/15 04:57:38;;;;;;;15.78;11.37;;;;;;;;;;354930;149;859347;-63
2021/07/15 04:58:40;;;;;;;23.34;10.85;;;;;;;;;;353229;148;857367;-63
2021/07/15 04:59:42;;;;;;;12.41;10.73;;;;;;;;;;351157;151;857348;-63
2021/07/15 05:00:44;;;;;;;14.29;10.62;;;;;;;;;;354647;151;857455;-62
2021/07/15 05:01:45;;;;;;;17.80;10.84;;;;;;;;;;355172;149;866727;-62
2021/07/15 05:02:48;;;;;;;17.44;10.89;;;;;;;;;;347778;152;865678;-64
2021/07/15 05:03:50;;;;;;;20.13;11.34;;;;;;;;;;351763;153;858420;-63
2021/07/15 05:04:51;;;;;;;14.98;11.26;;;;;;;;;;352284;150;866530;-64
2021/07/15 05:05:53;;;;;;;15.68;10.96;;;;;;;;;;350664;150;860088;-65
2021/07/15 05:06:56;;;;;;;14.01;9.53;;;;;;;;;;353822;150;859978;-60
2021/07/15 05:07:57;;;;;;;13.99;10.81;;;;;;;;;;348434;152;867451;-64
2021/07/15 05:08:59;;;;;;;15.18;10.44;;;;;;;;;;350718;151;857522;-67
2021/07/15 05:10:00;;;;;;;14.04;10.27;;;;;;;;;;347469;152;857396;-66
2021/07/15 05:11:02;;;;;;;14.52;9.92;;;;;;;;;;353735;151;857869;-66
2021/07/15 05:12:04;;;;;;;18.09;10.68;;;;;;;;;;347556;152;857319;-67
2021/07/15 05:13:06;;;;;;;15.11;9.98;;;;;;;;;;347040;151;857391;-66
2021/07/15 05:14:08;;;;;;;12.76;9.96;;;;;;;;;;352227;150;859131;-67
2021/07/15 05:15:10;;;;;;;13.90;10.78;;;;;;;;;;350880;152;865005;-67
2021/07/15 05:16:13;;;;;;;11.29;9.73;;;;;;;;;;350420;151;857878;-67
2021/07/15 05:17:15;;;;;;;15.36;9.94;;;;;;;;;;353479;150;866677;-67
2021/07/15 05:18:16;;;;;;;13.60;9.31;;;;;;;;;;357356;150;859181;-67
2021/07/15 05:19:18;;;;;;;129.50;75.86;;;;;;;;;;351542;149;857466;-67
2021/07/15 05:20:20;;;;;;;108.39;78.75;;;;;;;;;;353237;150;866597;-67
2021/07/15 05:21:22;;;;;;;21.87;16.14;;;;;;;;;;354703;150;857420;-67
2021/07/15 05:22:23;;;;;;;19.04;12.46;;;;;;;;;;354697;152;858098;-68
2021/07/15 05:23:25;;;;;;;14.14;10.29;;;;;;;;;;354837;151;858561;-66
2021/07/15 05:24:27;;;;;;;13.07;9.51;;;;;;;;;;351893;150;866244;-68
2021/07/15 05:25:28;;;;;;;11.57;9.49;;;;;;;;;;349721;154;857827;-67
2021/07/15 05:26:30;;;;;;;13.30;8.94;;;;;;;;;;351958;150;857397;-67
2021/07/15 05:27:31;;;;;;;12.56;9.44;;;;;;;;;;355570;149;863328;-66
2021/07/15 05:28:33;;;;;;;10.94;9.35;;;;;;;;;;351208;150;857552;-67
2021/07/15 05:29:34;;;;;;;14.39;9.73;;;;;;;;;;355431;151;857355;-66
2021/07/15 05:30:37;;;;;;;14.90;9.69;;;;;;;;;;355488;150;859164;-67
2021/07/15 05:31:38;;;;;;;13.10;9.27;;;;;;;;;;354974;150;858197;-66
2021/07/15 05:32:40;;;;;;;13.58;9.85;;;;;;;;;;353187;151;858685;-67
2021/07/15 05:33:41;;;;;;;12.31;9.12;;;;;;;;;;353669;150;859654;-69
2021/07/15 05:34:43;;;;;;;15.65;8.95;;;;;;;;;;355431;150;858714;-69
2021/07/15 05:35:44;;;;;;;16.32;9.24;;;;;;;;;;353890;150;857411;-67
2021/07/15 05:36:46;;;;;;;14.83;9.81;;;;;;;;;;353460;151;857863;-67
2021/07/15 05:37:48;;;;;;;18.77;10.46;;;;;;;;;;354995;149;860958;-67
2021/07/15 05:38:49;;;;;;;13.59;8.86;;;;;;;;;;351344;151;865197;-66
2021/07/15 05:39:51;;;;;;;16.78;9.83;;;;;;;;;;350097;154;857526;-67
2021/07/15 05:40:54;;;;;;;12.10;9.54;;;;;;;;;;352575;150;857665;-67
2021/07/15 05:41:56;;;;;;;13.66;9.19;;;;;;;;;;353673;150;857612;-67
2021/07/15 05:42:57;;;;;;;16.88;9.45;;;;;;;;;;356465;151;857571;-67
2021/07/15 05:43:59;;;;;;;14.06;9.39;;;;;;;;;;356294;151;857415;-67
2021/07/15 05:45:00;;;;;;;14.56;9.91;;;;;;;;;;354929;150;857520;-67
2021/07/15 05:46:02;;;;;;;14.83;8.93;;;;;;;;;;343748;151;857457;-66
2021/07/15 05:47:06;;;;;;;10.82;9.08;;;;;;;;;;343149;157;866035;-67
2021/07/15 05:48:07;;;;;;;16.34;9.41;;;;;;;;;;346886;152;859026;-67
2021/07/15 05:49:09;;;;;;;10.37;9.36;;;;;;;;;;355416;148;859775;-67
2021/07/15 05:50:12;;;;;;;16.65;9.49;;;;;;;;;;347746;154;857424;-67
2021/07/15 05:51:13;;;;;;;18.11;9.41;;;;;;;;;;352709;150;858195;-67
2021/07/15 05:52:15;;;;;;;14.88;8.74;;;;;;;;;;355393;148;857421;-67
2021/07/15 05:53:17;;;;;;;11.76;8.89;;;;;;;;;;354916;150;857392;-66
2021/07/15 05:54:18;;;;;;;12.21;8.53;;;;;;;;;;350746;153;866684;-66
2021/07/15 05:55:20;;;;;;;11.94;9.21;;;;;;;;;;348261;153;859092;-67
2021/07/15 05:56:22;;;;;;;12.20;9.07;;;;;;;;;;345158;151;865195;-67
2021/07/15 05:57:24;;;;;;;12.99;8.71;;;;;;;;;;356010;150;865088;-66
2021/07/15 05:58:25;;;;;;;13.86;8.97;;;;;;;;;;345994;152;857320;-66
2021/07/15 05:59:27;;;;;;;11.69;8.82;;;;;;;;;;348564;153;857396;-66
2021/07/15 06:00:29;;;;;;;11.23;8.70;;;;;;;;;;348298;153;857376;-66
2021/07/15 06:01:30;;;;;;;9.47;8.46;;;;;;;;;;348076;154;857313;-66